Butte, MT

4:15 PM MDT on August 29, 2014 (GMT -0600)
BTL/LAO | Change Station
CLOSE
Current Station
Personal Weather Station
Location: Butte, MT
Elevation: 5458 ft
Nearby Weather Stations

Elev 5458 ft 46.00 °N, 112.55 °W | Updated 1 minute ago

Clear
Clear
78.0 °F
Feels Like 78 °F
N
7.0
Wind Variable Wind from SW
Gusts 9.0 mph

Today
High -- | Low -- °F
--% Chance of Precip.
Yesterday
High -- | Low -- °F
Precip. -- in
6:47 AM 8:13 PM
Waxing Crescent, 17% visible
Pressure 29.84 in
Visibility 10.0 miles
Clouds Clear
Heat Index 78 °F
Dew Point 37 °F
Humidity 23%
Rainfall 0.00 in
Snow Depth Not available.
UV 6 out of 12
Pollen 7.30 out of 12
Air Quality Not available.
Flu Activity Not available.
METAR KBTM 292153Z AUTO VRB06KT 10SM CLR 26/00 A3000 RMK AO2 SLP105 T02560000

More Conditions Fewer Conditions

Pressure 29.84 in
Visibility 10.0 miles
Clouds Clear
Heat Index 78 °F
Dew Point 37 °F
Humidity 23%
Rainfall 0.00 in
Snow Depth Not available.
UV 6 out of 12
Pollen 7.30 out of 12
Air Quality Not available.
Flu Activity Not available.
METAR KBTM 292153Z AUTO VRB06KT 10SM CLR 26/00 A3000 RMK AO2 SLP105 T02560000

More Conditions Fewer Conditions

10-Day Weather Forecast

Almanac

Astronomy

Aug. 29, 2014 Rise Set
Actual Time 6:47 AM MDT 8:13 PM MDT
Civil Twilight 6:16 AM MDT 8:44 PM MDT
Nautical Twilight 5:38 AM MDT 9:22 PM MDT
Astronomical Twilight 4:57 AM MDT 10:02 PM MDT
Moon 10:55 AM MDT 9:57 PM MDT
Length of Visible Light 14h 28m
Length of Day
13h 26m
Tomorrow will be 3m 6s shorter.
Waxing Crescent, 17% of the Moon is Illuminated
Today
Waxing Crescent
Sep 2
First Quarter
Sep 8
Full
Sep 15
Last Quarter
Sep 24
New

Today's Extremes

State Highs State Lows

Community

WunderPhotos

Upload Photos

1,748,356 photos uploaded!

Nearby

Snow Depth

Station Depth Elevation
Brackett Creek 0 in 7320 ft
Tizer Basin 0 in 6840 ft
Black Pine 0 in 7210 ft
Lone Mountain 0 in 8880 ft
Lemhi Ridge 0 in 8100 ft

Earthquake Activity

City Distance Mag. Time & Date
No recent earthquake activity has been reported nearby.
Minimum magnitude displayed is 2.5.

Coastal Water Temperatures

Place Temperature
No Stations Reporting

Nearby Weather Stations